createdAt,value
2017-08-29T00:00:55.380Z,1012.22
2017-08-29T00:01:55.474Z,1012.26
2017-08-29T00:02:55.455Z,1012.20
2017-08-29T00:03:55.756Z,1012.22
2017-08-29T00:04:55.531Z,1012.27
2017-08-29T00:05:55.577Z,1012.27
2017-08-29T00:06:55.611Z,1012.27
2017-08-29T00:07:55.642Z,1012.27
2017-08-29T00:08:55.699Z,1012.28
2017-08-29T00:09:55.969Z,1012.28
2017-08-29T00:10:55.778Z,1012.27
2017-08-29T00:11:55.814Z,1012.30
2017-08-29T00:12:55.859Z,1012.21
2017-08-29T00:13:55.878Z,1012.24
2017-08-29T00:14:55.928Z,1012.25
2017-08-29T00:15:56.257Z,1012.23
2017-08-29T00:16:56.015Z,1012.23
2017-08-29T00:17:56.038Z,1012.22
2017-08-29T00:18:56.286Z,1012.21
2017-08-29T00:19:56.121Z,1012.24
2017-08-29T00:20:56.167Z,1012.22
2017-08-29T00:21:56.519Z,1012.20
2017-08-29T00:22:56.239Z,1012.22
2017-08-29T00:23:56.274Z,1012.19
2017-08-29T00:24:56.294Z,1012.13
2017-08-29T00:25:56.329Z,1012.19
2017-08-29T00:26:56.379Z,1012.14
2017-08-29T00:27:56.702Z,1012.18
2017-08-29T00:28:56.477Z,1012.12
2017-08-29T00:29:56.494Z,1012.15
2017-08-29T00:30:56.537Z,1012.15
2017-08-29T00:31:56.584Z,1012.13
2017-08-29T00:32:56.618Z,1012.12
2017-08-29T00:33:57.080Z,1012.11
2017-08-29T00:34:56.679Z,1012.14
2017-08-29T00:35:56.724Z,1012.11
2017-08-29T00:36:56.752Z,1012.10
2017-08-29T00:37:56.789Z,1012.07
2017-08-29T00:38:56.837Z,1012.10
2017-08-29T00:39:56.972Z,1012.10
2017-08-29T00:40:57.165Z,1012.10
2017-08-29T00:41:56.944Z,1012.06
2017-08-29T00:42:56.979Z,1012.06
2017-08-29T00:43:57.122Z,1012.08
2017-08-29T00:44:57.094Z,1012.14
2017-08-29T00:45:57.096Z,1012.08
2017-08-29T00:46:57.132Z,1012.09
2017-08-29T00:47:57.414Z,1012.04
2017-08-29T00:48:57.551Z,1012.05
2017-08-29T00:49:57.263Z,1012.05
2017-08-29T00:50:57.282Z,1012.04
2017-08-29T00:51:57.343Z,1012.03
2017-08-29T00:52:57.364Z,1012.01
2017-08-29T00:53:57.404Z,1012.00
2017-08-29T00:54:57.878Z,1012.00
2017-08-29T00:55:57.516Z,1011.95
2017-08-29T00:56:57.500Z,1011.96
2017-08-29T00:57:57.537Z,1011.95
2017-08-29T00:58:57.593Z,1011.95
2017-08-29T00:59:57.633Z,1011.95
2017-08-29T01:00:57.653Z,1011.95
2017-08-29T01:01:58.008Z,1011.96
2017-08-29T01:02:57.744Z,1011.91
2017-08-29T01:03:57.783Z,1011.87
2017-08-29T01:04:57.802Z,1011.86
2017-08-29T01:05:57.913Z,1011.85
2017-08-29T01:06:57.902Z,1011.83
2017-08-29T01:07:57.917Z,1011.82
2017-08-29T01:08:58.209Z,1011.84
2017-08-29T01:09:58.020Z,1011.77
2017-08-29T01:10:58.038Z,1011.78
2017-08-29T01:11:58.087Z,1011.78
2017-08-29T01:12:58.121Z,1011.80
2017-08-29T01:13:58.160Z,1011.79
2017-08-29T01:14:58.197Z,1011.73
2017-08-29T01:15:58.537Z,1011.72
2017-08-29T01:16:58.276Z,1011.77
2017-08-29T01:17:58.333Z,1011.80
2017-08-29T01:18:58.333Z,1011.75
2017-08-29T01:19:58.574Z,1011.81
2017-08-29T01:20:58.411Z,1011.80
2017-08-29T01:21:58.478Z,1011.80
2017-08-29T01:22:58.784Z,1011.82
2017-08-29T01:23:58.522Z,1011.84
2017-08-29T01:24:58.577Z,1011.83
2017-08-29T01:25:58.618Z,1011.83
2017-08-29T01:26:58.743Z,1011.80
2017-08-29T01:27:58.696Z,1011.82
2017-08-29T01:28:58.881Z,1011.80
2017-08-29T01:29:59.017Z,1011.77
2017-08-29T01:30:58.784Z,1011.80
2017-08-29T01:31:58.834Z,1011.81
2017-08-29T01:32:58.863Z,1011.81
2017-08-29T01:33:58.916Z,1011.75
2017-08-29T01:34:58.937Z,1011.74
2017-08-29T01:35:58.998Z,1011.81
2017-08-29T01:36:59.261Z,1011.78
2017-08-29T01:37:59.073Z,1011.79
2017-08-29T01:38:59.119Z,1011.76
2017-08-29T01:39:59.127Z,1011.80
2017-08-29T01:40:59.159Z,1011.77
2017-08-29T01:41:59.198Z,1011.78
2017-08-29T01:42:59.238Z,1011.76
2017-08-29T01:43:59.676Z,1011.74
2017-08-29T01:44:59.333Z,1011.77
2017-08-29T01:45:59.366Z,1011.74
2017-08-29T01:46:59.403Z,1011.73
2017-08-29T01:47:59.435Z,1011.72
2017-08-29T01:48:59.481Z,1011.73
2017-08-29T01:49:59.522Z,1011.73
2017-08-29T01:50:59.789Z,1011.73
2017-08-29T01:51:59.591Z,1011.72
2017-08-29T01:52:59.639Z,1011.71
2017-08-29T01:53:59.651Z,1011.67
2017-08-29T01:54:59.694Z,1011.71
2017-08-29T01:55:59.724Z,1011.70
2017-08-29T01:56:59.781Z,1011.70
2017-08-29T01:58:00.057Z,1011.66
2017-08-29T01:58:59.856Z,1011.65
2017-08-29T01:59:59.888Z,1011.66
2017-08-29T02:00:59.917Z,1011.63
2017-08-29T02:02:00.226Z,1011.66
2017-08-29T02:02:59.996Z,1011.61
2017-08-29T02:04:00.300Z,1011.61
2017-08-29T02:05:00.070Z,1011.57
2017-08-29T02:06:00.129Z,1011.57
2017-08-29T02:07:00.161Z,1011.57
2017-08-29T02:08:00.205Z,1011.55
2017-08-29T02:09:00.218Z,1011.57
2017-08-29T02:10:00.554Z,1011.56
2017-08-29T02:11:00.297Z,1011.58
2017-08-29T02:12:00.344Z,1011.59
2017-08-29T02:13:00.386Z,1011.55
2017-08-29T02:14:00.423Z,1011.60
2017-08-29T02:15:00.452Z,1011.57
2017-08-29T02:16:00.795Z,1011.55
2017-08-29T02:17:00.517Z,1011.56
2017-08-29T02:18:00.570Z,1011.51
2017-08-29T02:19:00.609Z,1011.54
2017-08-29T02:20:00.994Z,1011.55
2017-08-29T02:21:00.700Z,1011.60
2017-08-29T02:22:01.004Z,1011.59
2017-08-29T02:23:00.762Z,1011.58
2017-08-29T02:24:00.811Z,1011.58
2017-08-29T02:25:00.837Z,1011.56
2017-08-29T02:26:00.876Z,1011.60
2017-08-29T02:27:00.903Z,1011.59
2017-08-29T02:28:01.286Z,1011.56
2017-08-29T02:29:01.087Z,1011.56
2017-08-29T02:30:01.005Z,1011.56
2017-08-29T02:31:01.080Z,1011.57
2017-08-29T02:32:01.106Z,1011.57
2017-08-29T02:33:01.135Z,1011.59
2017-08-29T02:34:01.463Z,1011.57
2017-08-29T02:35:01.405Z,1011.59
2017-08-29T02:36:01.238Z,1011.57
2017-08-29T02:37:01.277Z,1011.58
2017-08-29T02:38:01.331Z,1011.57
2017-08-29T02:39:01.361Z,1011.64
2017-08-29T02:40:01.633Z,1011.65
2017-08-29T02:41:01.554Z,1011.62
2017-08-29T02:42:01.476Z,1011.61
2017-08-29T02:43:01.493Z,1011.59
2017-08-29T02:44:01.532Z,1011.58
2017-08-29T02:45:01.591Z,1011.59
2017-08-29T02:46:01.872Z,1011.55
2017-08-29T02:47:01.648Z,1011.53
2017-08-29T02:48:01.704Z,1011.58
2017-08-29T02:49:01.743Z,1011.55
2017-08-29T02:50:01.833Z,1011.53
2017-08-29T02:51:01.817Z,1011.54
2017-08-29T02:52:02.101Z,1011.56
2017-08-29T02:53:01.876Z,1011.53
2017-08-29T02:54:01.923Z,1011.53
2017-08-29T02:55:01.943Z,1011.55
2017-08-29T02:56:02.102Z,1011.52
2017-08-29T02:57:02.038Z,1011.50
2017-08-29T02:58:02.310Z,1011.47
2017-08-29T02:59:02.117Z,1011.49
2017-08-29T03:00:02.161Z,1011.46
2017-08-29T03:01:02.171Z,1011.50
2017-08-29T03:02:02.210Z,1011.50
2017-08-29T03:03:02.252Z,1011.52
2017-08-29T03:04:02.540Z,1011.53
2017-08-29T03:05:02.347Z,1011.51
2017-08-29T03:06:02.384Z,1011.47
2017-08-29T03:07:02.454Z,1011.50
2017-08-29T03:08:02.448Z,1011.51
2017-08-29T03:09:02.472Z,1011.52
2017-08-29T03:10:02.824Z,1011.49
2017-08-29T03:11:02.578Z,1011.46
2017-08-29T03:12:02.580Z,1011.47
2017-08-29T03:13:02.831Z,1011.44
2017-08-29T03:14:02.662Z,1011.45
2017-08-29T03:15:02.709Z,1011.45
2017-08-29T03:16:02.984Z,1011.44
2017-08-29T03:17:02.822Z,1011.42
2017-08-29T03:18:02.843Z,1011.42
2017-08-29T03:19:02.865Z,1011.44
2017-08-29T03:20:02.883Z,1011.45
2017-08-29T03:21:02.924Z,1011.43
2017-08-29T03:22:03.509Z,1011.46
2017-08-29T03:23:03.004Z,1011.46
2017-08-29T03:24:03.075Z,1011.46
2017-08-29T03:25:03.090Z,1011.44
2017-08-29T03:26:03.127Z,1011.43
2017-08-29T03:27:03.170Z,1011.43
2017-08-29T03:28:03.582Z,1011.38
2017-08-29T03:29:03.488Z,1011.38
2017-08-29T03:30:03.258Z,1011.36
2017-08-29T03:31:03.308Z,1011.39
2017-08-29T03:32:03.337Z,1011.43
2017-08-29T03:33:03.366Z,1011.41
2017-08-29T03:34:03.404Z,1011.41
2017-08-29T03:35:03.460Z,1011.43
2017-08-29T03:36:03.738Z,1011.44
2017-08-29T03:37:03.519Z,1011.44
2017-08-29T03:38:03.991Z,1011.43
2017-08-29T03:39:03.612Z,1011.45
2017-08-29T03:40:03.648Z,1011.41
2017-08-29T03:41:03.682Z,1011.45
2017-08-29T03:42:03.733Z,1011.41
2017-08-29T03:43:04.066Z,1011.43
2017-08-29T03:44:03.898Z,1011.39
2017-08-29T03:45:03.838Z,1011.42
2017-08-29T03:46:03.854Z,1011.40
2017-08-29T03:47:03.933Z,1011.43
2017-08-29T03:48:03.931Z,1011.44
2017-08-29T03:49:03.984Z,1011.44
2017-08-29T03:50:04.351Z,1011.45
2017-08-29T03:51:04.082Z,1011.41
2017-08-29T03:52:04.103Z,1011.39
2017-08-29T03:53:04.129Z,1011.35
2017-08-29T03:54:04.149Z,1011.38
2017-08-29T03:55:04.204Z,1011.34
2017-08-29T03:56:04.242Z,1011.34
2017-08-29T03:57:04.509Z,1011.36
2017-08-29T03:58:04.318Z,1011.35
2017-08-29T03:59:04.354Z,1011.33
2017-08-29T04:00:04.394Z,1011.34
2017-08-29T04:01:04.429Z,1011.36
2017-08-29T04:02:04.673Z,1011.37
2017-08-29T04:03:04.488Z,1011.35
2017-08-29T04:04:04.777Z,1011.32
2017-08-29T04:05:04.585Z,1011.33
2017-08-29T04:06:04.615Z,1011.33
2017-08-29T04:07:04.635Z,1011.37
2017-08-29T04:08:04.673Z,1011.34
2017-08-29T04:09:04.725Z,1011.36
2017-08-29T04:10:04.746Z,1011.38
2017-08-29T04:11:05.191Z,1011.39
2017-08-29T04:12:04.838Z,1011.40
2017-08-29T04:13:04.875Z,1011.42
2017-08-29T04:14:05.010Z,1011.40
2017-08-29T04:15:04.934Z,1011.43
2017-08-29T04:16:04.986Z,1011.44
2017-08-29T04:17:05.033Z,1011.46
2017-08-29T04:18:05.365Z,1011.42
2017-08-29T04:19:05.087Z,1011.42
2017-08-29T04:20:05.228Z,1011.43
2017-08-29T04:21:05.174Z,1011.43
2017-08-29T04:22:05.192Z,1011.42
2017-08-29T04:23:05.261Z,1011.39
2017-08-29T04:24:05.289Z,1011.39
2017-08-29T04:25:05.634Z,1011.39
2017-08-29T04:26:05.465Z,1011.36
2017-08-29T04:27:05.402Z,1011.39
2017-08-29T04:28:05.441Z,1011.40
2017-08-29T04:29:05.474Z,1011.40
2017-08-29T04:30:05.499Z,1011.41
2017-08-29T04:31:05.545Z,1011.43
2017-08-29T04:32:05.882Z,1011.41
2017-08-29T04:33:05.604Z,1011.45
2017-08-29T04:34:05.667Z,1011.44
2017-08-29T04:35:05.698Z,1011.47
2017-08-29T04:36:05.716Z,1011.44
2017-08-29T04:37:05.780Z,1011.43
2017-08-29T04:38:05.957Z,1011.43
2017-08-29T04:39:06.092Z,1011.43
2017-08-29T04:40:05.866Z,1011.46
2017-08-29T04:41:05.903Z,1011.46
2017-08-29T04:42:05.963Z,1011.44
2017-08-29T04:43:05.976Z,1011.49
2017-08-29T04:44:06.219Z,1011.50
2017-08-29T04:45:06.079Z,1011.46
2017-08-29T04:46:06.360Z,1011.46
2017-08-29T04:47:06.147Z,1011.47
2017-08-29T04:48:06.161Z,1011.47
2017-08-29T04:49:06.215Z,1011.47
2017-08-29T04:50:06.287Z,1011.48
2017-08-29T04:51:06.292Z,1011.44
2017-08-29T04:52:06.339Z,1011.48
2017-08-29T04:53:06.667Z,1011.46
2017-08-29T04:54:06.402Z,1011.49
2017-08-29T04:55:06.427Z,1011.48
2017-08-29T04:56:06.528Z,1011.46
2017-08-29T04:57:06.499Z,1011.46
2017-08-29T04:58:06.586Z,1011.46
2017-08-29T04:59:06.840Z,1011.48
2017-08-29T05:00:06.611Z,1011.45
2017-08-29T05:01:06.665Z,1011.46
2017-08-29T05:02:06.753Z,1011.50
2017-08-29T05:03:06.736Z,1011.51
2017-08-29T05:04:06.783Z,1011.52
2017-08-29T05:05:07.043Z,1011.50
2017-08-29T05:06:06.837Z,1011.59
2017-08-29T05:07:06.871Z,1011.59
2017-08-29T05:08:06.906Z,1011.59
2017-08-29T05:09:07.022Z,1011.59
2017-08-29T05:10:07.284Z,1011.59
2017-08-29T05:11:07.277Z,1011.57
2017-08-29T05:12:07.082Z,1011.58
2017-08-29T05:13:07.091Z,1011.59
2017-08-29T05:14:07.155Z,1011.60
2017-08-29T05:15:07.189Z,1011.57
2017-08-29T05:16:07.222Z,1011.59
2017-08-29T05:17:07.492Z,1011.58
2017-08-29T05:18:07.282Z,1011.59
2017-08-29T05:19:07.339Z,1011.62
2017-08-29T05:20:07.595Z,1011.63
2017-08-29T05:21:07.413Z,1011.65
2017-08-29T05:22:07.449Z,1011.66
2017-08-29T05:23:07.720Z,1011.66
2017-08-29T05:24:07.543Z,1011.73
2017-08-29T05:25:07.539Z,1011.69
2017-08-29T05:26:07.660Z,1011.66
2017-08-29T05:27:07.619Z,1011.64
2017-08-29T05:28:07.669Z,1011.67
2017-08-29T05:29:07.939Z,1011.69
2017-08-29T05:30:07.909Z,1011.69
2017-08-29T05:31:07.790Z,1011.67
2017-08-29T05:32:07.837Z,1011.68
2017-08-29T05:33:07.857Z,1011.64
2017-08-29T05:34:07.878Z,1011.65
2017-08-29T05:35:08.245Z,1011.67
2017-08-29T05:36:07.958Z,1011.66
2017-08-29T05:37:08.007Z,1011.66
2017-08-29T05:38:08.042Z,1011.65
2017-08-29T05:39:08.092Z,1011.63
2017-08-29T05:40:08.215Z,1011.64
2017-08-29T05:41:08.446Z,1011.67
2017-08-29T05:42:08.197Z,1011.63
2017-08-29T05:43:08.277Z,1011.66
2017-08-29T05:44:08.272Z,1011.67
2017-08-29T05:45:08.288Z,1011.65
2017-08-29T05:46:08.346Z,1011.69
2017-08-29T05:47:08.627Z,1011.71
2017-08-29T05:48:08.402Z,1011.69
2017-08-29T05:49:08.472Z,1011.68
2017-08-29T05:50:08.487Z,1011.67
2017-08-29T05:51:08.730Z,1011.73
2017-08-29T05:52:08.566Z,1011.67
2017-08-29T05:53:08.887Z,1011.69
2017-08-29T05:54:08.669Z,1011.67
2017-08-29T05:55:08.757Z,1011.67
2017-08-29T05:56:08.696Z,1011.65
2017-08-29T05:57:08.841Z,1011.65
2017-08-29T05:58:08.769Z,1011.66
2017-08-29T05:59:09.055Z,1011.67
2017-08-29T06:00:08.881Z,1011.63
2017-08-29T06:01:08.887Z,1011.64
2017-08-29T06:02:08.938Z,1011.66
2017-08-29T06:03:09.312Z,1011.63
2017-08-29T06:04:09.019Z,1011.65
2017-08-29T06:05:09.341Z,1011.65
2017-08-29T06:06:09.093Z,1011.68
2017-08-29T06:07:09.125Z,1011.68
2017-08-29T06:08:09.162Z,1011.68
2017-08-29T06:09:09.179Z,1011.64
2017-08-29T06:10:09.225Z,1011.66
2017-08-29T06:11:09.541Z,1011.63
2017-08-29T06:12:09.294Z,1011.61
2017-08-29T06:13:09.335Z,1011.62
2017-08-29T06:14:09.370Z,1011.61
2017-08-29T06:15:09.461Z,1011.62
2017-08-29T06:16:09.461Z,1011.59
2017-08-29T06:17:09.754Z,1011.56
2017-08-29T06:18:09.719Z,1011.61
2017-08-29T06:19:09.570Z,1011.59
2017-08-29T06:20:09.612Z,1011.59
2017-08-29T06:21:09.696Z,1011.63
2017-08-29T06:22:09.671Z,1011.59
2017-08-29T06:23:09.709Z,1011.61
2017-08-29T06:24:10.011Z,1011.62
2017-08-29T06:25:09.807Z,1011.56
2017-08-29T06:26:09.858Z,1011.57
2017-08-29T06:27:09.861Z,1011.56
2017-08-29T06:28:09.916Z,1011.53
2017-08-29T06:29:09.961Z,1011.54
2017-08-29T06:30:10.139Z,1011.51
2017-08-29T06:31:10.267Z,1011.50
2017-08-29T06:32:10.061Z,1011.48
2017-08-29T06:33:10.087Z,1011.45
2017-08-29T06:34:10.198Z,1011.44
2017-08-29T06:35:10.156Z,1011.43
2017-08-29T06:36:10.244Z,1011.42
2017-08-29T06:37:10.243Z,1011.41
2017-08-29T06:38:10.523Z,1011.43
2017-08-29T06:39:10.328Z,1011.40
2017-08-29T06:40:10.698Z,1011.42
2017-08-29T06:41:10.385Z,1011.39
2017-08-29T06:42:10.424Z,1011.42
2017-08-29T06:43:10.487Z,1011.41
2017-08-29T06:44:10.620Z,1011.38
2017-08-29T06:45:10.807Z,1011.37
2017-08-29T06:46:10.639Z,1011.36
2017-08-29T06:47:10.615Z,1011.34
2017-08-29T06:48:10.669Z,1011.41
2017-08-29T06:49:10.684Z,1011.41
2017-08-29T06:50:10.722Z,1011.41
2017-08-29T06:51:10.764Z,1011.42
2017-08-29T06:52:11.084Z,1011.45
2017-08-29T06:53:10.861Z,1011.46
2017-08-29T06:54:10.881Z,1011.43
2017-08-29T06:55:10.915Z,1011.45
2017-08-29T06:56:11.053Z,1011.43
2017-08-29T06:57:11.006Z,1011.49
2017-08-29T06:58:11.043Z,1011.47
2017-08-29T06:59:11.315Z,1011.46
2017-08-29T07:00:11.119Z,1011.46
2017-08-29T07:01:11.275Z,1011.43
2017-08-29T07:02:11.183Z,1011.42
2017-08-29T07:03:11.223Z,1011.42
2017-08-29T07:04:11.255Z,1011.41
2017-08-29T07:05:11.291Z,1011.42
2017-08-29T07:06:11.580Z,1011.43
2017-08-29T07:07:11.370Z,1011.43
2017-08-29T07:08:11.422Z,1011.43
2017-08-29T07:09:11.492Z,1011.40
2017-08-29T07:10:11.501Z,1011.42
2017-08-29T07:11:11.517Z,1011.44
2017-08-29T07:12:11.577Z,1011.41
2017-08-29T07:13:12.009Z,1011.42
2017-08-29T07:14:11.631Z,1011.39
2017-08-29T07:15:11.681Z,1011.42
2017-08-29T07:16:11.730Z,1011.41
2017-08-29T07:17:11.789Z,1011.41
2017-08-29T07:18:11.805Z,1011.44
2017-08-29T07:19:11.861Z,1011.44
2017-08-29T07:20:12.165Z,1011.48
2017-08-29T07:21:11.901Z,1011.44
2017-08-29T07:22:11.941Z,1011.46
2017-08-29T07:23:12.008Z,1011.44
2017-08-29T07:24:12.024Z,1011.45
2017-08-29T07:25:12.158Z,1011.42
2017-08-29T07:26:12.112Z,1011.45
2017-08-29T07:27:12.452Z,1011.44
2017-08-29T07:28:12.185Z,1011.44
2017-08-29T07:29:12.208Z,1011.45
2017-08-29T07:30:12.248Z,1011.45
2017-08-29T07:31:12.304Z,1011.42
2017-08-29T07:32:12.372Z,1011.46
2017-08-29T07:33:12.376Z,1011.45
2017-08-29T07:34:12.715Z,1011.47
2017-08-29T07:35:12.437Z,1011.45
2017-08-29T07:36:12.488Z,1011.46
2017-08-29T07:37:12.510Z,1011.43
2017-08-29T07:38:12.566Z,1011.45
2017-08-29T07:39:12.625Z,1011.45
2017-08-29T07:40:12.673Z,1011.42
2017-08-29T07:41:12.966Z,1011.41
2017-08-29T07:42:12.768Z,1011.41
2017-08-29T07:43:12.757Z,1011.39
2017-08-29T07:44:12.803Z,1011.38
2017-08-29T07:45:12.854Z,1011.39
2017-08-29T07:46:12.855Z,1011.35
2017-08-29T07:47:13.196Z,1011.39
2017-08-29T07:48:13.084Z,1011.39
2017-08-29T07:49:13.024Z,1011.40
2017-08-29T07:50:13.029Z,1011.37
2017-08-29T07:51:13.070Z,1011.43
2017-08-29T07:52:13.194Z,1011.39
2017-08-29T07:53:13.444Z,1011.40
2017-08-29T07:54:13.190Z,1011.37
2017-08-29T07:55:13.202Z,1011.36
2017-08-29T07:56:13.238Z,1011.37
2017-08-29T07:57:13.295Z,1011.42
2017-08-29T07:58:13.348Z,1011.39
2017-08-29T07:59:13.672Z,1011.36
2017-08-29T08:00:13.410Z,1011.36
2017-08-29T08:01:13.446Z,1011.35
2017-08-29T08:02:13.488Z,1011.33
2017-08-29T08:03:13.683Z,1011.31
2017-08-29T08:04:13.565Z,1011.37
2017-08-29T08:05:13.905Z,1011.33
2017-08-29T08:06:13.619Z,1011.32
2017-08-29T08:07:13.751Z,1011.32
2017-08-29T08:08:13.724Z,1011.27
2017-08-29T08:09:13.840Z,1011.25
2017-08-29T08:10:13.783Z,1011.28
2017-08-29T08:11:14.087Z,1011.25
2017-08-29T08:12:13.872Z,1011.26
2017-08-29T08:13:13.899Z,1011.28
2017-08-29T08:14:13.968Z,1011.28
2017-08-29T08:15:13.993Z,1011.29
2017-08-29T08:16:14.024Z,1011.27
2017-08-29T08:17:14.349Z,1011.28
2017-08-29T08:18:14.177Z,1011.30
2017-08-29T08:19:14.219Z,1011.26
2017-08-29T08:20:14.178Z,1011.28
2017-08-29T08:21:14.224Z,1011.26
2017-08-29T08:22:14.257Z,1011.25
2017-08-29T08:23:14.596Z,1011.26
2017-08-29T08:24:14.513Z,1011.22
2017-08-29T08:25:14.355Z,1011.23
2017-08-29T08:26:14.404Z,1011.25
2017-08-29T08:27:14.459Z,1011.22
2017-08-29T08:28:14.489Z,1011.21
2017-08-29T08:29:14.828Z,1011.20
2017-08-29T08:30:14.595Z,1011.21
2017-08-29T08:31:14.589Z,1011.15
2017-08-29T08:32:14.644Z,1011.15
2017-08-29T08:33:14.691Z,1011.18
2017-08-29T08:34:14.705Z,1011.16
2017-08-29T08:35:15.191Z,1011.14
2017-08-29T08:36:14.802Z,1011.18
2017-08-29T08:37:14.842Z,1011.22
2017-08-29T08:38:14.878Z,1011.20
2017-08-29T08:39:14.901Z,1011.21
2017-08-29T08:40:14.940Z,1011.18
2017-08-29T08:41:15.355Z,1011.18
2017-08-29T08:42:15.040Z,1011.17
2017-08-29T08:43:15.074Z,1011.14
2017-08-29T08:44:15.241Z,1011.13
2017-08-29T08:45:15.125Z,1011.17
2017-08-29T08:46:15.177Z,1011.15
2017-08-29T08:47:15.628Z,1011.13
2017-08-29T08:48:15.276Z,1011.09
2017-08-29T08:49:16.619Z,1011.09
2017-08-29T08:50:15.506Z,1011.06
2017-08-29T08:51:15.363Z,1011.07
2017-08-29T08:52:15.413Z,1011.02
2017-08-29T08:53:15.750Z,1011.02
2017-08-29T08:54:15.502Z,1011.01
2017-08-29T08:55:15.532Z,1011.02
2017-08-29T08:56:15.632Z,1011.00
2017-08-29T08:57:15.590Z,1011.02
2017-08-29T08:58:15.654Z,1011.05
2017-08-29T08:59:15.702Z,1011.06
2017-08-29T09:00:15.741Z,1011.05
2017-08-29T09:01:15.770Z,1011.05
2017-08-29T09:02:15.803Z,1011.03
2017-08-29T09:03:15.888Z,1011.02
2017-08-29T09:04:15.870Z,1011.05
2017-08-29T09:05:16.184Z,1011.04
2017-08-29T09:06:15.939Z,1011.03
2017-08-29T09:07:15.989Z,1011.04
2017-08-29T09:08:16.018Z,1010.98
2017-08-29T09:09:16.118Z,1010.97
2017-08-29T09:10:16.115Z,1010.96
2017-08-29T09:11:16.464Z,1010.90
2017-08-29T09:12:16.173Z,1010.87
2017-08-29T09:13:16.254Z,1010.86
2017-08-29T09:14:16.255Z,1010.84
2017-08-29T09:15:16.319Z,1010.77
2017-08-29T09:16:16.348Z,1010.79
2017-08-29T09:17:16.367Z,1010.77
2017-08-29T09:18:16.753Z,1010.78
2017-08-29T09:19:16.449Z,1010.75
2017-08-29T09:20:16.493Z,1010.74
2017-08-29T09:21:16.526Z,1010.75
2017-08-29T09:22:16.589Z,1010.71
2017-08-29T09:23:16.617Z,1010.71
2017-08-29T09:24:16.788Z,1010.70
2017-08-29T09:25:17.015Z,1010.68
2017-08-29T09:26:16.744Z,1010.69
2017-08-29T09:27:16.791Z,1010.68
2017-08-29T09:28:16.909Z,1010.67
2017-08-29T09:29:17.369Z,1010.68
2017-08-29T09:30:16.910Z,1010.70
2017-08-29T09:31:16.955Z,1010.65
2017-08-29T09:32:17.333Z,1010.62
2017-08-29T09:33:17.004Z,1010.62
2017-08-29T09:34:17.069Z,1010.63
2017-08-29T09:35:17.076Z,1010.59
2017-08-29T09:36:17.242Z,1010.62
2017-08-29T09:37:17.171Z,1010.61
2017-08-29T09:38:17.270Z,1010.66
2017-08-29T09:39:17.550Z,1010.64
2017-08-29T09:40:17.488Z,1010.63
2017-08-29T09:41:17.301Z,1010.65
2017-08-29T09:42:17.375Z,1010.65
2017-08-29T09:43:17.383Z,1010.63
2017-08-29T09:44:17.424Z,1010.62
2017-08-29T09:45:17.846Z,1010.61
2017-08-29T09:46:17.749Z,1010.61
2017-08-29T09:47:17.617Z,1010.62
2017-08-29T09:48:17.573Z,1010.63
2017-08-29T09:49:17.649Z,1010.59
2017-08-29T09:50:17.670Z,1010.61
2017-08-29T09:51:17.688Z,1010.60
2017-08-29T09:52:18.088Z,1010.55
2017-08-29T09:53:17.772Z,1010.54
2017-08-29T09:54:17.824Z,1010.52
2017-08-29T09:55:17.869Z,1010.49
2017-08-29T09:56:17.975Z,1010.51
2017-08-29T09:57:17.988Z,1010.51
2017-08-29T09:58:17.991Z,1010.50
2017-08-29T09:59:18.329Z,1010.49
2017-08-29T10:00:18.055Z,1010.47
2017-08-29T10:01:18.184Z,1010.52
2017-08-29T10:02:18.121Z,1010.51
2017-08-29T10:03:18.186Z,1010.45
2017-08-29T10:04:18.218Z,1010.49
2017-08-29T10:05:18.252Z,1010.47
2017-08-29T10:06:18.575Z,1010.49
2017-08-29T10:07:18.356Z,1010.46
2017-08-29T10:08:18.486Z,1010.49
2017-08-29T10:09:18.421Z,1010.46
2017-08-29T10:10:18.454Z,1010.47
2017-08-29T10:11:18.689Z,1010.50
2017-08-29T10:12:18.509Z,1010.46
2017-08-29T10:13:18.811Z,1010.45
2017-08-29T10:14:18.590Z,1010.44
2017-08-29T10:15:18.645Z,1010.39
2017-08-29T10:16:18.732Z,1010.36
2017-08-29T10:17:18.731Z,1010.39
2017-08-29T10:18:18.750Z,1010.36
2017-08-29T10:19:18.810Z,1010.34
2017-08-29T10:20:19.148Z,1010.35
2017-08-29T10:21:18.865Z,1010.42
2017-08-29T10:22:18.924Z,1010.38
2017-08-29T10:23:18.956Z,1010.37
2017-08-29T10:24:18.998Z,1010.41
2017-08-29T10:25:19.016Z,1010.38
2017-08-29T10:26:19.162Z,1010.38
2017-08-29T10:27:19.415Z,1010.36
2017-08-29T10:28:19.132Z,1010.41
2017-08-29T10:29:19.228Z,1010.34
2017-08-29T10:30:19.249Z,1010.36
2017-08-29T10:31:19.272Z,1010.34
2017-08-29T10:32:19.314Z,1010.33
2017-08-29T10:33:19.366Z,1010.31
2017-08-29T10:34:19.640Z,1010.31
2017-08-29T10:35:19.463Z,1010.32
2017-08-29T10:36:19.464Z,1010.33
2017-08-29T10:37:19.487Z,1010.28
2017-08-29T10:38:19.544Z,1010.29
2017-08-29T10:39:19.602Z,1010.26
2017-08-29T10:40:19.632Z,1010.23
2017-08-29T10:41:19.999Z,1010.18
2017-08-29T10:42:19.751Z,1010.16
2017-08-29T10:43:19.728Z,1010.18
2017-08-29T10:44:19.760Z,1010.11
2017-08-29T10:45:19.803Z,1010.14
2017-08-29T10:46:19.883Z,1010.13
2017-08-29T10:47:20.329Z,1010.12
2017-08-29T10:48:19.940Z,1010.12
2017-08-29T10:49:19.956Z,1010.08
2017-08-29T10:50:19.998Z,1010.11
2017-08-29T10:51:20.060Z,1010.07
2017-08-29T10:52:20.075Z,1010.08
2017-08-29T10:53:20.441Z,1010.08
2017-08-29T10:54:20.161Z,1010.02
2017-08-29T10:55:20.195Z,1010.04
2017-08-29T10:56:20.237Z,1010.06
2017-08-29T10:57:20.271Z,1010.05
2017-08-29T10:58:20.316Z,1009.99
2017-08-29T10:59:20.660Z,1009.99
2017-08-29T11:00:20.389Z,1009.99
2017-08-29T11:01:20.456Z,1010.01
2017-08-29T11:02:20.565Z,1010.01
2017-08-29T11:03:20.789Z,1009.98
2017-08-29T11:04:20.563Z,1009.97
2017-08-29T11:05:20.855Z,1009.99
2017-08-29T11:06:20.643Z,1009.97
2017-08-29T11:07:20.768Z,1009.91
2017-08-29T11:08:20.726Z,1009.96
2017-08-29T11:09:20.742Z,1009.91
2017-08-29T11:10:20.787Z,1009.92
2017-08-29T11:11:21.073Z,1009.95
2017-08-29T11:12:20.870Z,1009.90
2017-08-29T11:13:20.930Z,1009.84
2017-08-29T11:14:20.957Z,1009.90
2017-08-29T11:15:20.993Z,1009.88
2017-08-29T11:16:21.040Z,1009.82
2017-08-29T11:17:21.328Z,1009.86
2017-08-29T11:18:21.129Z,1009.84
2017-08-29T11:19:21.137Z,1009.82
2017-08-29T11:20:21.194Z,1009.83
2017-08-29T11:21:21.336Z,1009.83
2017-08-29T11:22:21.273Z,1009.84
2017-08-29T11:23:21.547Z,1009.82
2017-08-29T11:24:21.346Z,1009.82
2017-08-29T11:25:21.396Z,1009.77
2017-08-29T11:26:21.430Z,1009.84
2017-08-29T11:27:21.458Z,1009.83
2017-08-29T11:28:21.494Z,1009.83
2017-08-29T11:29:21.799Z,1009.85
2017-08-29T11:30:21.582Z,1009.80
2017-08-29T11:31:21.612Z,1009.85
2017-08-29T11:32:21.666Z,1009.86
2017-08-29T11:33:21.687Z,1009.83
2017-08-29T11:34:21.752Z,1009.83
2017-08-29T11:35:22.040Z,1009.82
2017-08-29T11:36:21.974Z,1009.80
2017-08-29T11:37:21.851Z,1009.83
2017-08-29T11:38:21.945Z,1009.81
2017-08-29T11:39:21.944Z,1009.76
2017-08-29T11:40:21.966Z,1009.81
2017-08-29T11:41:22.277Z,1009.80
2017-08-29T11:42:22.098Z,1009.76
2017-08-29T11:43:22.093Z,1009.75
2017-08-29T11:44:22.125Z,1009.75
2017-08-29T11:45:22.170Z,1009.74
2017-08-29T11:46:22.227Z,1009.73
2017-08-29T11:47:22.531Z,1009.68
2017-08-29T11:48:22.331Z,1009.68
2017-08-29T11:49:22.328Z,1009.72
2017-08-29T11:50:22.381Z,1009.65
2017-08-29T11:51:22.408Z,1009.67
2017-08-29T11:52:22.470Z,1009.67
2017-08-29T11:53:22.750Z,1009.63
2017-08-29T11:54:22.539Z,1009.65
2017-08-29T11:55:22.583Z,1009.60
2017-08-29T11:56:22.809Z,1009.58
2017-08-29T11:57:22.661Z,1009.55
2017-08-29T11:58:22.698Z,1009.55
2017-08-29T11:59:22.739Z,1009.52
2017-08-29T12:00:22.777Z,1009.54
2017-08-29T12:01:22.880Z,1009.54
2017-08-29T12:02:22.872Z,1009.52
2017-08-29T12:03:22.904Z,1009.56
2017-08-29T12:04:22.926Z,1009.58
2017-08-29T12:05:23.263Z,1009.59
2017-08-29T12:06:23.072Z,1009.59